Terminal Aerodrome Forecast
Issued by NWS

Home | Current Version | Previous Version | Text Only | Print | Product List | Glossary On
Versions: 1 2 3 4 5 6 7 8 9 10 11 12 13 14 15 16
165
FTUS46 KPDT 251721 CCA
TAFBDN
TAF COR
KBDN 251721Z 2518/2618 VRB05KT P6SM SCT020
     FM252000 32006KT P6SM SCT020 SCT060
     FM260300 VRB04KT P6SM BKN200
     FM260900 18005KT P6SM BKN070 BKN150
     FM261500 19008KT P6SM OVC060=

USA.gov is the U.S. government's official web portal to all federal, state and local government web resources and services.